sensor_id;sensor_type;location;lat;lon;timestamp;P1;durP1;ratioP1;P2;durP2;ratioP2
31210;SDS011;17836;50.948;3.946;2023-09-08T00:05:10;11.30;;;8.18;;
31210;SDS011;17836;50.948;3.946;2023-09-08T00:07:38;8.27;;;7.47;;
31210;SDS011;17836;50.948;3.946;2023-09-08T00:10:03;8.20;;;7.50;;
31210;SDS011;17836;50.948;3.946;2023-09-08T00:12:29;8.00;;;7.18;;
31210;SDS011;17836;50.948;3.946;2023-09-08T00:14:54;8.70;;;6.47;;
31210;SDS011;17836;50.948;3.946;2023-09-08T00:17:21;7.65;;;7.00;;
31210;SDS011;17836;50.948;3.946;2023-09-08T00:19:47;8.40;;;7.65;;
31210;SDS011;17836;50.948;3.946;2023-09-08T00:22:12;8.97;;;7.97;;
31210;SDS011;17836;50.948;3.946;2023-09-08T00:24:37;8.50;;;7.60;;
31210;SDS011;17836;50.948;3.946;2023-09-08T00:27:02;7.65;;;7.05;;
31210;SDS011;17836;50.948;3.946;2023-09-08T00:29:28;7.80;;;7.17;;
31210;SDS011;17836;50.948;3.946;2023-09-08T00:31:53;8.55;;;7.72;;
31210;SDS011;17836;50.948;3.946;2023-09-08T00:34:18;8.80;;;7.33;;
31210;SDS011;17836;50.948;3.946;2023-09-08T00:36:44;7.63;;;6.93;;
31210;SDS011;17836;50.948;3.946;2023-09-08T00:39:09;8.88;;;8.07;;
31210;SDS011;17836;50.948;3.946;2023-09-08T00:41:34;7.90;;;7.30;;
31210;SDS011;17836;50.948;3.946;2023-09-08T00:44:00;7.65;;;6.93;;
31210;SDS011;17836;50.948;3.946;2023-09-08T00:46:25;9.60;;;7.50;;
31210;SDS011;17836;50.948;3.946;2023-09-08T00:48:53;7.82;;;7.15;;
31210;SDS011;17836;50.948;3.946;2023-09-08T00:51:21;7.78;;;7.07;;
31210;SDS011;17836;50.948;3.946;2023-09-08T00:53:47;8.15;;;7.40;;
31210;SDS011;17836;50.948;3.946;2023-09-08T00:56:13;9.63;;;7.57;;
31210;SDS011;17836;50.948;3.946;2023-09-08T00:58:38;7.40;;;6.88;;
31210;SDS011;17836;50.948;3.946;2023-09-08T01:01:04;8.33;;;7.40;;
31210;SDS011;17836;50.948;3.946;2023-09-08T01:03:30;7.65;;;6.95;;
31210;SDS011;17836;50.948;3.946;2023-09-08T01:05:56;8.13;;;7.32;;
31210;SDS011;17836;50.948;3.946;2023-09-08T01:08:21;9.82;;;7.65;;
31210;SDS011;17836;50.948;3.946;2023-09-08T01:10:46;8.48;;;7.75;;
31210;SDS011;17836;50.948;3.946;2023-09-08T01:13:12;8.15;;;7.22;;
31210;SDS011;17836;50.948;3.946;2023-09-08T01:15:38;8.30;;;7.57;;
31210;SDS011;17836;50.948;3.946;2023-09-08T01:18:03;8.32;;;7.43;;
31210;SDS011;17836;50.948;3.946;2023-09-08T01:20:42;7.53;;;6.93;;
31210;SDS011;17836;50.948;3.946;2023-09-08T01:25:46;9.02;;;6.95;;
31210;SDS011;17836;50.948;3.946;2023-09-08T01:28:11;8.10;;;7.40;;
31210;SDS011;17836;50.948;3.946;2023-09-08T01:30:40;7.85;;;7.15;;
31210;SDS011;17836;50.948;3.946;2023-09-08T01:33:05;7.68;;;6.97;;
31210;SDS011;17836;50.948;3.946;2023-09-08T01:35:30;8.25;;;7.47;;
31210;SDS011;17836;50.948;3.946;2023-09-08T01:37:58;7.88;;;7.07;;
31210;SDS011;17836;50.948;3.946;2023-09-08T01:40:26;9.27;;;7.85;;
31210;SDS011;17836;50.948;3.946;2023-09-08T01:42:51;8.37;;;7.53;;
31210;SDS011;17836;50.948;3.946;2023-09-08T01:45:17;9.20;;;7.95;;
31210;SDS011;17836;50.948;3.946;2023-09-08T01:47:42;8.17;;;7.33;;
31210;SDS011;17836;50.948;3.946;2023-09-08T01:50:07;8.40;;;7.70;;
31210;SDS011;17836;50.948;3.946;2023-09-08T01:52:35;8.13;;;7.40;;
31210;SDS011;17836;50.948;3.946;2023-09-08T01:55:00;7.53;;;6.93;;
31210;SDS011;17836;50.948;3.946;2023-09-08T01:57:26;8.95;;;8.05;;
31210;SDS011;17836;50.948;3.946;2023-09-08T01:59:51;7.60;;;7.00;;
31210;SDS011;17836;50.948;3.946;2023-09-08T02:02:16;9.10;;;7.27;;
31210;SDS011;17836;50.948;3.946;2023-09-08T02:04:42;7.97;;;7.17;;
31210;SDS011;17836;50.948;3.946;2023-09-08T02:07:07;7.25;;;6.65;;
31210;SDS011;17836;50.948;3.946;2023-09-08T02:09:33;7.13;;;6.50;;
31210;SDS011;17836;50.948;3.946;2023-09-08T02:11:59;9.02;;;7.78;;
31210;SDS011;17836;50.948;3.946;2023-09-08T02:14:24;7.82;;;7.05;;
31210;SDS011;17836;50.948;3.946;2023-09-08T02:16:50;8.30;;;7.47;;
31210;SDS011;17836;50.948;3.946;2023-09-08T02:19:15;9.07;;;6.93;;
31210;SDS011;17836;50.948;3.946;2023-09-08T02:21:40;7.47;;;6.87;;
31210;SDS011;17836;50.948;3.946;2023-09-08T02:24:08;7.70;;;6.90;;
31210;SDS011;17836;50.948;3.946;2023-09-08T02:26:35;7.18;;;6.57;;
31210;SDS011;17836;50.948;3.946;2023-09-08T02:29:01;8.77;;;7.93;;
31210;SDS011;17836;50.948;3.946;2023-09-08T02:31:26;8.23;;;7.07;;
31210;SDS011;17836;50.948;3.946;2023-09-08T02:33:52;9.50;;;7.78;;
31210;SDS011;17836;50.948;3.946;2023-09-08T02:36:17;8.03;;;7.30;;
31210;SDS011;17836;50.948;3.946;2023-09-08T02:38:42;7.18;;;6.47;;
31210;SDS011;17836;50.948;3.946;2023-09-08T02:41:08;7.83;;;7.03;;
31210;SDS011;17836;50.948;3.946;2023-09-08T02:43:33;8.80;;;7.60;;
31210;SDS011;17836;50.948;3.946;2023-09-08T02:45:58;7.37;;;6.77;;
31210;SDS011;17836;50.948;3.946;2023-09-08T02:48:24;8.37;;;7.57;;
31210;SDS011;17836;50.948;3.946;2023-09-08T02:50:49;8.25;;;7.50;;
31210;SDS011;17836;50.948;3.946;2023-09-08T02:53:14;13.27;;;7.53;;
31210;SDS011;17836;50.948;3.946;2023-09-08T02:55:40;10.90;;;7.43;;
31210;SDS011;17836;50.948;3.946;2023-09-08T02:58:05;8.00;;;7.20;;
31210;SDS011;17836;50.948;3.946;2023-09-08T03:00:30;7.22;;;6.60;;
31210;SDS011;17836;50.948;3.946;2023-09-08T03:02:56;7.87;;;7.07;;
31210;SDS011;17836;50.948;3.946;2023-09-08T03:05:21;7.90;;;7.10;;
31210;SDS011;17836;50.948;3.946;2023-09-08T03:07:49;9.97;;;7.33;;
31210;SDS011;17836;50.948;3.946;2023-09-08T03:10:17;8.20;;;7.40;;
31210;SDS011;17836;50.948;3.946;2023-09-08T03:12:42;8.60;;;6.83;;
31210;SDS011;17836;50.948;3.946;2023-09-08T03:15:08;7.45;;;6.75;;
31210;SDS011;17836;50.948;3.946;2023-09-08T03:17:33;7.80;;;7.10;;
31210;SDS011;17836;50.948;3.946;2023-09-08T03:19:59;8.63;;;6.97;;
31210;SDS011;17836;50.948;3.946;2023-09-08T03:22:24;9.07;;;7.57;;
31210;SDS011;17836;50.948;3.946;2023-09-08T03:24:50;8.65;;;7.75;;
31210;SDS011;17836;50.948;3.946;2023-09-08T03:27:18;10.25;;;7.72;;
31210;SDS011;17836;50.948;3.946;2023-09-08T03:29:45;15.18;;;7.80;;
31210;SDS011;17836;50.948;3.946;2023-09-08T03:32:11;11.38;;;7.60;;
31210;SDS011;17836;50.948;3.946;2023-09-08T03:34:36;14.80;;;8.07;;
31210;SDS011;17836;50.948;3.946;2023-09-08T03:37:04;16.50;;;8.43;;
31210;SDS011;17836;50.948;3.946;2023-09-08T03:39:29;11.95;;;8.35;;
31210;SDS011;17836;50.948;3.946;2023-09-08T03:41:55;11.23;;;8.83;;
31210;SDS011;17836;50.948;3.946;2023-09-08T03:44:20;11.40;;;8.93;;
31210;SDS011;17836;50.948;3.946;2023-09-08T03:46:45;12.47;;;8.63;;
31210;SDS011;17836;50.948;3.946;2023-09-08T03:49:11;12.75;;;8.57;;
31210;SDS011;17836;50.948;3.946;2023-09-08T03:51:36;11.10;;;8.10;;
31210;SDS011;17836;50.948;3.946;2023-09-08T03:54:01;11.37;;;7.40;;
31210;SDS011;17836;50.948;3.946;2023-09-08T03:56:30;8.82;;;7.57;;
31210;SDS011;17836;50.948;3.946;2023-09-08T03:59:01;11.32;;;7.97;;
31210;SDS011;17836;50.948;3.946;2023-09-08T04:01:26;8.27;;;7.28;;
31210;SDS011;17836;50.948;3.946;2023-09-08T04:03:51;11.53;;;7.97;;
31210;SDS011;17836;50.948;3.946;2023-09-08T04:06:19;11.90;;;8.90;;
31210;SDS011;17836;50.948;3.946;2023-09-08T04:08:47;12.38;;;8.90;;
31210;SDS011;17836;50.948;3.946;2023-09-08T04:11:12;11.43;;;9.23;;
31210;SDS011;17836;50.948;3.946;2023-09-08T04:13:37;12.17;;;9.30;;
31210;SDS011;17836;50.948;3.946;2023-09-08T04:16:02;12.50;;;8.47;;
31210;SDS011;17836;50.948;3.946;2023-09-08T04:18:30;10.05;;;9.15;;
31210;SDS011;17836;50.948;3.946;2023-09-08T04:20:55;12.00;;;8.93;;
31210;SDS011;17836;50.948;3.946;2023-09-08T04:23:23;12.13;;;8.83;;
31210;SDS011;17836;50.948;3.946;2023-09-08T04:25:51;11.35;;;8.85;;
31210;SDS011;17836;50.948;3.946;2023-09-08T04:28:16;12.43;;;9.80;;
31210;SDS011;17836;50.948;3.946;2023-09-08T04:30:42;10.37;;;9.30;;
31210;SDS011;17836;50.948;3.946;2023-09-08T04:33:09;14.33;;;9.27;;
31210;SDS011;17836;50.948;3.946;2023-09-08T04:35:34;11.57;;;9.20;;
31210;SDS011;17836;50.948;3.946;2023-09-08T04:38:00;10.43;;;8.15;;
31210;SDS011;17836;50.948;3.946;2023-09-08T04:40:28;11.57;;;9.60;;
31210;SDS011;17836;50.948;3.946;2023-09-08T04:42:53;14.00;;;9.93;;
31210;SDS011;17836;50.948;3.946;2023-09-08T04:45:19;15.57;;;10.20;;
31210;SDS011;17836;50.948;3.946;2023-09-08T04:47:44;15.98;;;10.25;;
31210;SDS011;17836;50.948;3.946;2023-09-08T04:50:12;12.18;;;9.43;;
31210;SDS011;17836;50.948;3.946;2023-09-08T04:52:37;10.20;;;9.20;;
31210;SDS011;17836;50.948;3.946;2023-09-08T04:55:03;10.25;;;9.35;;
31210;SDS011;17836;50.948;3.946;2023-09-08T04:57:28;10.48;;;9.05;;
31210;SDS011;17836;50.948;3.946;2023-09-08T04:59:54;11.07;;;9.88;;
31210;SDS011;17836;50.948;3.946;2023-09-08T05:02:21;11.07;;;9.80;;
31210;SDS011;17836;50.948;3.946;2023-09-08T05:04:47;10.43;;;9.35;;
31210;SDS011;17836;50.948;3.946;2023-09-08T05:07:12;12.70;;;8.00;;
31210;SDS011;17836;50.948;3.946;2023-09-08T05:09:38;12.93;;;10.00;;
31210;SDS011;17836;50.948;3.946;2023-09-08T05:12:06;12.40;;;9.93;;
31210;SDS011;17836;50.948;3.946;2023-09-08T05:14:31;12.60;;;9.90;;
31210;SDS011;17836;50.948;3.946;2023-09-08T05:16:56;13.57;;;10.37;;
31210;SDS011;17836;50.948;3.946;2023-09-08T05:19:22;11.38;;;10.27;;
31210;SDS011;17836;50.948;3.946;2023-09-08T05:21:50;13.25;;;9.23;;
31210;SDS011;17836;50.948;3.946;2023-09-08T05:24:15;11.73;;;10.50;;
31210;SDS011;17836;50.948;3.946;2023-09-08T05:26:41;14.10;;;10.47;;
31210;SDS011;17836;50.948;3.946;2023-09-08T05:29:06;12.43;;;10.23;;
31210;SDS011;17836;50.948;3.946;2023-09-08T05:31:31;10.83;;;9.77;;
31210;SDS011;17836;50.948;3.946;2023-09-08T05:33:56;14.52;;;10.45;;
31210;SDS011;17836;50.948;3.946;2023-09-08T05:36:22;12.03;;;10.10;;
31210;SDS011;17836;50.948;3.946;2023-09-08T05:38:49;14.38;;;10.75;;
31210;SDS011;17836;50.948;3.946;2023-09-08T05:41:14;12.17;;;10.97;;
31210;SDS011;17836;50.948;3.946;2023-09-08T05:43:40;11.38;;;10.27;;
31210;SDS011;17836;50.948;3.946;2023-09-08T05:46:05;12.53;;;11.23;;
31210;SDS011;17836;50.948;3.946;2023-09-08T05:48:33;16.23;;;11.02;;
31210;SDS011;17836;50.948;3.946;2023-09-08T05:50:59;13.00;;;9.07;;
31210;SDS011;17836;50.948;3.946;2023-09-08T05:53:24;10.77;;;9.18;;
31210;SDS011;17836;50.948;3.946;2023-09-08T05:55:50;11.50;;;10.23;;
31210;SDS011;17836;50.948;3.946;2023-09-08T05:58:15;12.83;;;10.33;;
31210;SDS011;17836;50.948;3.946;2023-09-08T06:00:40;11.40;;;10.07;;
31210;SDS011;17836;50.948;3.946;2023-09-08T06:03:06;10.02;;;9.20;;
31210;SDS011;17836;50.948;3.946;2023-09-08T06:05:33;10.77;;;9.75;;
31210;SDS011;17836;50.948;3.946;2023-09-08T06:07:59;12.40;;;9.83;;
31210;SDS011;17836;50.948;3.946;2023-09-08T06:10:24;9.88;;;8.98;;
31210;SDS011;17836;50.948;3.946;2023-09-08T06:12:50;13.75;;;10.30;;
31210;SDS011;17836;50.948;3.946;2023-09-08T06:15:16;12.85;;;11.63;;
31210;SDS011;17836;50.948;3.946;2023-09-08T06:17:41;11.48;;;10.10;;
31210;SDS011;17836;50.948;3.946;2023-09-08T06:20:06;10.87;;;9.77;;
31210;SDS011;17836;50.948;3.946;2023-09-08T06:22:32;14.23;;;10.77;;
31210;SDS011;17836;50.948;3.946;2023-09-08T06:24:57;12.82;;;10.25;;
31210;SDS011;17836;50.948;3.946;2023-09-08T06:27:22;17.53;;;10.37;;
31210;SDS011;17836;50.948;3.946;2023-09-08T06:29:48;12.77;;;10.40;;
31210;SDS011;17836;50.948;3.946;2023-09-08T06:32:13;18.48;;;10.95;;
31210;SDS011;17836;50.948;3.946;2023-09-08T06:34:41;13.43;;;10.18;;
31210;SDS011;17836;50.948;3.946;2023-09-08T06:37:10;12.77;;;10.98;;
31210;SDS011;17836;50.948;3.946;2023-09-08T06:39:35;12.52;;;10.40;;
31210;SDS011;17836;50.948;3.946;2023-09-08T06:42:01;13.82;;;11.05;;
31210;SDS011;17836;50.948;3.946;2023-09-08T06:44:26;19.87;;;10.80;;
31210;SDS011;17836;50.948;3.946;2023-09-08T06:46:52;13.30;;;10.23;;
31210;SDS011;17836;50.948;3.946;2023-09-08T06:49:17;14.87;;;11.33;;
31210;SDS011;17836;50.948;3.946;2023-09-08T06:51:42;15.13;;;11.20;;
31210;SDS011;17836;50.948;3.946;2023-09-08T06:54:07;11.90;;;10.77;;
31210;SDS011;17836;50.948;3.946;2023-09-08T06:56:35;10.67;;;9.67;;
31210;SDS011;17836;50.948;3.946;2023-09-08T06:59:00;15.30;;;11.65;;
31210;SDS011;17836;50.948;3.946;2023-09-08T07:01:26;13.05;;;11.45;;
31210;SDS011;17836;50.948;3.946;2023-09-08T07:03:51;11.50;;;10.50;;
31210;SDS011;17836;50.948;3.946;2023-09-08T07:06:19;13.00;;;10.00;;
31210;SDS011;17836;50.948;3.946;2023-09-08T07:08:47;13.95;;;11.32;;
31210;SDS011;17836;50.948;3.946;2023-09-08T07:11:14;15.90;;;11.65;;
31210;SDS011;17836;50.948;3.946;2023-09-08T07:13:39;12.57;;;9.47;;
31210;SDS011;17836;50.948;3.946;2023-09-08T07:16:05;10.60;;;9.70;;
31210;SDS011;17836;50.948;3.946;2023-09-08T07:18:32;11.23;;;9.50;;
31210;SDS011;17836;50.948;3.946;2023-09-08T07:21:01;10.60;;;9.60;;
31210;SDS011;17836;50.948;3.946;2023-09-08T07:23:26;8.60;;;7.90;;
31210;SDS011;17836;50.948;3.946;2023-09-08T07:25:51;10.10;;;9.10;;
31210;SDS011;17836;50.948;3.946;2023-09-08T07:28:19;11.88;;;8.93;;
31210;SDS011;17836;50.948;3.946;2023-09-08T07:30:44;8.55;;;7.80;;
31210;SDS011;17836;50.948;3.946;2023-09-08T07:33:10;9.07;;;8.27;;
31210;SDS011;17836;50.948;3.946;2023-09-08T07:35:38;10.90;;;7.28;;
31210;SDS011;17836;50.948;3.946;2023-09-08T07:38:03;11.32;;;7.45;;
31210;SDS011;17836;50.948;3.946;2023-09-08T07:40:29;10.70;;;7.45;;
31210;SDS011;17836;50.948;3.946;2023-09-08T07:42:54;8.47;;;7.67;;
31210;SDS011;17836;50.948;3.946;2023-09-08T07:45:22;8.00;;;7.30;;
31210;SDS011;17836;50.948;3.946;2023-09-08T07:47:50;8.48;;;7.75;;
31210;SDS011;17836;50.948;3.946;2023-09-08T07:50:17;7.70;;;7.00;;
31210;SDS011;17836;50.948;3.946;2023-09-08T07:52:45;7.30;;;6.55;;
31210;SDS011;17836;50.948;3.946;2023-09-08T07:55:13;10.23;;;7.38;;
31210;SDS011;17836;50.948;3.946;2023-09-08T07:57:41;7.35;;;6.65;;
31210;SDS011;17836;50.948;3.946;2023-09-08T08:00:08;8.10;;;5.95;;
31210;SDS011;17836;50.948;3.946;2023-09-08T08:02:41;6.97;;;6.28;;
31210;SDS011;17836;50.948;3.946;2023-09-08T08:05:07;7.30;;;6.45;;
31210;SDS011;17836;50.948;3.946;2023-09-08T08:07:32;7.20;;;6.18;;
31210;SDS011;17836;50.948;3.946;2023-09-08T08:09:57;10.05;;;7.30;;
31210;SDS011;17836;50.948;3.946;2023-09-08T08:12:23;8.93;;;7.27;;
31210;SDS011;17836;50.948;3.946;2023-09-08T08:14:48;7.82;;;6.97;;
31210;SDS011;17836;50.948;3.946;2023-09-08T08:17:14;7.40;;;6.70;;
31210;SDS011;17836;50.948;3.946;2023-09-08T08:19:42;9.02;;;6.28;;
31210;SDS011;17836;50.948;3.946;2023-09-08T08:22:10;7.60;;;6.63;;
31210;SDS011;17836;50.948;3.946;2023-09-08T08:24:35;7.03;;;6.43;;
31210;SDS011;17836;50.948;3.946;2023-09-08T08:27:00;6.73;;;6.03;;
31210;SDS011;17836;50.948;3.946;2023-09-08T08:29:29;6.85;;;5.85;;
31210;SDS011;17836;50.948;3.946;2023-09-08T08:31:54;6.78;;;6.18;;
31210;SDS011;17836;50.948;3.946;2023-09-08T08:34:19;7.43;;;6.70;;
31210;SDS011;17836;50.948;3.946;2023-09-08T08:36:44;7.53;;;6.60;;
31210;SDS011;17836;50.948;3.946;2023-09-08T08:39:10;10.87;;;6.13;;
31210;SDS011;17836;50.948;3.946;2023-09-08T08:41:35;7.50;;;5.93;;
31210;SDS011;17836;50.948;3.946;2023-09-08T08:44:05;7.35;;;6.65;;
31210;SDS011;17836;50.948;3.946;2023-09-08T08:46:33;6.70;;;6.13;;
31210;SDS011;17836;50.948;3.946;2023-09-08T08:48:59;7.75;;;6.38;;
31210;SDS011;17836;50.948;3.946;2023-09-08T08:51:25;7.75;;;6.95;;
31210;SDS011;17836;50.948;3.946;2023-09-08T08:53:51;6.95;;;6.22;;
31210;SDS011;17836;50.948;3.946;2023-09-08T08:56:17;6.65;;;5.95;;
31210;SDS011;17836;50.948;3.946;2023-09-08T08:58:43;7.00;;;6.28;;
31210;SDS011;17836;50.948;3.946;2023-09-08T09:01:10;13.75;;;6.05;;
31210;SDS011;17836;50.948;3.946;2023-09-08T09:03:35;7.53;;;5.63;;
31210;SDS011;17836;50.948;3.946;2023-09-08T09:06:03;7.00;;;6.30;;
31210;SDS011;17836;50.948;3.946;2023-09-08T09:08:31;9.93;;;5.57;;
31210;SDS011;17836;50.948;3.946;2023-09-08T09:10:57;11.75;;;6.10;;
31210;SDS011;17836;50.948;3.946;2023-09-08T09:13:22;8.77;;;5.93;;
31210;SDS011;17836;50.948;3.946;2023-09-08T09:15:53;5.82;;;5.28;;
31210;SDS011;17836;50.948;3.946;2023-09-08T09:18:22;5.88;;;5.25;;
31210;SDS011;17836;50.948;3.946;2023-09-08T09:20:54;10.23;;;5.83;;
31210;SDS011;17836;50.948;3.946;2023-09-08T09:23:27;7.30;;;6.60;;
31210;SDS011;17836;50.948;3.946;2023-09-08T09:25:53;7.00;;;6.30;;
31210;SDS011;17836;50.948;3.946;2023-09-08T09:28:18;7.67;;;6.40;;
31210;SDS011;17836;50.948;3.946;2023-09-08T09:30:47;7.10;;;6.07;;
31210;SDS011;17836;50.948;3.946;2023-09-08T09:33:13;13.60;;;5.90;;
31210;SDS011;17836;50.948;3.946;2023-09-08T09:35:46;6.78;;;4.55;;
31210;SDS011;17836;50.948;3.946;2023-09-08T09:38:12;6.35;;;5.75;;
31210;SDS011;17836;50.948;3.946;2023-09-08T09:40:38;7.55;;;4.95;;
31210;SDS011;17836;50.948;3.946;2023-09-08T09:43:07;6.38;;;5.15;;
31210;SDS011;17836;50.948;3.946;2023-09-08T09:45:36;5.85;;;4.90;;
31210;SDS011;17836;50.948;3.946;2023-09-08T09:48:04;7.50;;;4.90;;
31210;SDS011;17836;50.948;3.946;2023-09-08T09:50:33;5.80;;;5.30;;
31210;SDS011;17836;50.948;3.946;2023-09-08T09:53:20;5.32;;;4.68;;
31210;SDS011;17836;50.948;3.946;2023-09-08T09:55:45;5.90;;;4.15;;
31210;SDS011;17836;50.948;3.946;2023-09-08T09:58:10;10.23;;;4.95;;
31210;SDS011;17836;50.948;3.946;2023-09-08T10:00:36;5.28;;;4.82;;
31210;SDS011;17836;50.948;3.946;2023-09-08T10:03:03;5.22;;;4.68;;
31210;SDS011;17836;50.948;3.946;2023-09-08T10:05:29;5.38;;;4.13;;
31210;SDS011;17836;50.948;3.946;2023-09-08T10:07:54;4.85;;;4.35;;
31210;SDS011;17836;50.948;3.946;2023-09-08T10:10:20;6.30;;;4.83;;
31210;SDS011;17836;50.948;3.946;2023-09-08T10:12:52;6.38;;;4.45;;
31210;SDS011;17836;50.948;3.946;2023-09-08T10:15:19;4.60;;;3.80;;
31210;SDS011;17836;50.948;3.946;2023-09-08T10:17:45;5.25;;;4.10;;
31210;SDS011;17836;50.948;3.946;2023-09-08T10:20:12;4.95;;;4.38;;
31210;SDS011;17836;50.948;3.946;2023-09-08T10:22:38;6.30;;;4.47;;
31210;SDS011;17836;50.948;3.946;2023-09-08T10:25:06;6.28;;;4.53;;
31210;SDS011;17836;50.948;3.946;2023-09-08T10:27:32;6.57;;;3.85;;
31210;SDS011;17836;50.948;3.946;2023-09-08T10:29:59;6.23;;;3.83;;
31210;SDS011;17836;50.948;3.946;2023-09-08T10:32:25;4.65;;;3.90;;
31210;SDS011;17836;50.948;3.946;2023-09-08T10:34:51;4.65;;;3.40;;
31210;SDS011;17836;50.948;3.946;2023-09-08T10:37:18;4.30;;;3.95;;
31210;SDS011;17836;50.948;3.946;2023-09-08T10:39:43;5.07;;;3.65;;
31210;SDS011;17836;50.948;3.946;2023-09-08T10:44:44;6.07;;;3.92;;
31210;SDS011;17836;50.948;3.946;2023-09-08T10:47:23;4.07;;;3.60;;
31210;SDS011;17836;50.948;3.946;2023-09-08T10:49:49;8.40;;;3.95;;
31210;SDS011;17836;50.948;3.946;2023-09-08T10:52:18;7.75;;;4.28;;
31210;SDS011;17836;50.948;3.946;2023-09-08T10:54:51;3.75;;;3.50;;
31210;SDS011;17836;50.948;3.946;2023-09-08T10:57:17;5.85;;;3.35;;
31210;SDS011;17836;50.948;3.946;2023-09-08T11:04:59;3.90;;;3.47;;
31210;SDS011;17836;50.948;3.946;2023-09-08T11:07:24;4.05;;;3.53;;
31210;SDS011;17836;50.948;3.946;2023-09-08T11:09:50;4.40;;;3.90;;
31210;SDS011;17836;50.948;3.946;2023-09-08T11:12:16;4.23;;;3.80;;
31210;SDS011;17836;50.948;3.946;2023-09-08T11:14:41;4.78;;;3.42;;
31210;SDS011;17836;50.948;3.946;2023-09-08T11:17:08;4.78;;;3.13;;
31210;SDS011;17836;50.948;3.946;2023-09-08T11:19:43;8.13;;;3.70;;
31210;SDS011;17836;50.948;3.946;2023-09-08T11:22:08;4.13;;;3.30;;
31210;SDS011;17836;50.948;3.946;2023-09-08T11:24:34;3.67;;;3.33;;
31210;SDS011;17836;50.948;3.946;2023-09-08T11:27:00;3.85;;;3.55;;
31210;SDS011;17836;50.948;3.946;2023-09-08T11:29:25;5.85;;;3.15;;
31210;SDS011;17836;50.948;3.946;2023-09-08T11:31:51;3.67;;;3.17;;
31210;SDS011;17836;50.948;3.946;2023-09-08T11:34:17;6.93;;;3.08;;
31210;SDS011;17836;50.948;3.946;2023-09-08T11:36:42;3.20;;;2.93;;
31210;SDS011;17836;50.948;3.946;2023-09-08T11:39:08;3.23;;;2.97;;
31210;SDS011;17836;50.948;3.946;2023-09-08T11:41:35;3.60;;;3.30;;
31210;SDS011;17836;50.948;3.946;2023-09-08T11:44:00;6.90;;;3.50;;
31210;SDS011;17836;50.948;3.946;2023-09-08T11:46:25;4.43;;;3.20;;
31210;SDS011;17836;50.948;3.946;2023-09-08T11:48:52;7.45;;;3.25;;
31210;SDS011;17836;50.948;3.946;2023-09-08T11:51:22;4.83;;;3.00;;
31210;SDS011;17836;50.948;3.946;2023-09-08T11:53:47;5.25;;;3.30;;
31210;SDS011;17836;50.948;3.946;2023-09-08T11:56:12;5.68;;;3.90;;
31210;SDS011;17836;50.948;3.946;2023-09-08T11:58:41;5.05;;;3.50;;
31210;SDS011;17836;50.948;3.946;2023-09-08T12:01:09;5.22;;;3.40;;
31210;SDS011;17836;50.948;3.946;2023-09-08T12:03:34;3.60;;;3.30;;
31210;SDS011;17836;50.948;3.946;2023-09-08T12:06:00;4.72;;;3.63;;
31210;SDS011;17836;50.948;3.946;2023-09-08T12:08:29;4.50;;;3.88;;
31210;SDS011;17836;50.948;3.946;2023-09-08T12:10:55;6.07;;;3.95;;
31210;SDS011;17836;50.948;3.946;2023-09-08T12:13:22;4.77;;;3.20;;
31210;SDS011;17836;50.948;3.946;2023-09-08T12:15:48;10.85;;;3.58;;
31210;SDS011;17836;50.948;3.946;2023-09-08T12:18:13;5.57;;;3.70;;
31210;SDS011;17836;50.948;3.946;2023-09-08T12:20:40;4.18;;;3.70;;
31210;SDS011;17836;50.948;3.946;2023-09-08T12:23:27;5.85;;;3.75;;
31210;SDS011;17836;50.948;3.946;2023-09-08T12:25:52;4.57;;;3.85;;
31210;SDS011;17836;50.948;3.946;2023-09-08T12:28:18;8.25;;;3.90;;
31210;SDS011;17836;50.948;3.946;2023-09-08T12:30:46;4.28;;;3.78;;
31210;SDS011;17836;50.948;3.946;2023-09-08T12:33:11;7.10;;;3.58;;
31210;SDS011;17836;50.948;3.946;2023-09-08T12:35:38;3.38;;;2.50;;
31210;SDS011;17836;50.948;3.946;2023-09-08T12:38:04;6.60;;;3.10;;
31210;SDS011;17836;50.948;3.946;2023-09-08T12:40:30;3.00;;;2.08;;
31210;SDS011;17836;50.948;3.946;2023-09-08T12:42:56;5.70;;;2.65;;
31210;SDS011;17836;50.948;3.946;2023-09-08T12:45:23;6.57;;;3.25;;
31210;SDS011;17836;50.948;3.946;2023-09-08T12:47:48;5.95;;;3.08;;
31210;SDS011;17836;50.948;3.946;2023-09-08T12:50:14;5.78;;;3.47;;
31210;SDS011;17836;50.948;3.946;2023-09-08T12:52:39;4.00;;;3.10;;
31210;SDS011;17836;50.948;3.946;2023-09-08T12:55:05;3.83;;;2.83;;
31210;SDS011;17836;50.948;3.946;2023-09-08T12:57:30;7.03;;;2.92;;
31210;SDS011;17836;50.948;3.946;2023-09-08T12:59:56;6.73;;;3.20;;
31210;SDS011;17836;50.948;3.946;2023-09-08T13:02:21;4.38;;;3.50;;
31210;SDS011;17836;50.948;3.946;2023-09-08T13:04:52;7.75;;;3.90;;
31210;SDS011;17836;50.948;3.946;2023-09-08T13:07:17;5.78;;;3.42;;
31210;SDS011;17836;50.948;3.946;2023-09-08T13:09:43;8.18;;;3.85;;
31210;SDS011;17836;50.948;3.946;2023-09-08T13:12:08;6.38;;;2.90;;
31210;SDS011;17836;50.948;3.946;2023-09-08T13:14:34;4.60;;;3.00;;
31210;SDS011;17836;50.948;3.946;2023-09-08T13:17:00;5.60;;;4.13;;
31210;SDS011;17836;50.948;3.946;2023-09-08T13:19:25;5.40;;;3.20;;
31210;SDS011;17836;50.948;3.946;2023-09-08T13:21:50;6.50;;;3.60;;
31210;SDS011;17836;50.948;3.946;2023-09-08T13:24:16;10.53;;;3.70;;
31210;SDS011;17836;50.948;3.946;2023-09-08T13:26:43;7.17;;;4.20;;
31210;SDS011;17836;50.948;3.946;2023-09-08T13:29:09;4.65;;;4.07;;
31210;SDS011;17836;50.948;3.946;2023-09-08T13:31:34;8.53;;;4.40;;
31210;SDS011;17836;50.948;3.946;2023-09-08T13:34:02;8.47;;;4.30;;
31210;SDS011;17836;50.948;3.946;2023-09-08T13:36:27;6.63;;;4.10;;
31210;SDS011;17836;50.948;3.946;2023-09-08T13:38:55;10.80;;;4.53;;
31210;SDS011;17836;50.948;3.946;2023-09-08T13:41:20;11.65;;;5.05;;
31210;SDS011;17836;50.948;3.946;2023-09-08T13:43:45;4.63;;;3.77;;
31210;SDS011;17836;50.948;3.946;2023-09-08T13:46:10;5.83;;;4.27;;
31210;SDS011;17836;50.948;3.946;2023-09-08T13:48:36;7.47;;;4.90;;
31210;SDS011;17836;50.948;3.946;2023-09-08T13:51:04;5.97;;;4.00;;
31210;SDS011;17836;50.948;3.946;2023-09-08T13:53:30;5.68;;;4.72;;
31210;SDS011;17836;50.948;3.946;2023-09-08T13:56:01;11.35;;;5.18;;
31210;SDS011;17836;50.948;3.946;2023-09-08T13:58:30;9.13;;;5.07;;
31210;SDS011;17836;50.948;3.946;2023-09-08T14:00:58;9.48;;;4.78;;
31210;SDS011;17836;50.948;3.946;2023-09-08T14:03:23;11.85;;;4.63;;
31210;SDS011;17836;50.948;3.946;2023-09-08T14:05:49;8.67;;;3.73;;
31210;SDS011;17836;50.948;3.946;2023-09-08T14:08:16;6.50;;;4.10;;
31210;SDS011;17836;50.948;3.946;2023-09-08T14:10:42;6.30;;;3.70;;
31210;SDS011;17836;50.948;3.946;2023-09-08T14:13:07;5.07;;;3.60;;
31210;SDS011;17836;50.948;3.946;2023-09-08T14:15:32;8.67;;;4.27;;
31210;SDS011;17836;50.948;3.946;2023-09-08T14:17:58;4.67;;;3.70;;
31210;SDS011;17836;50.948;3.946;2023-09-08T14:20:23;7.90;;;3.33;;
31210;SDS011;17836;50.948;3.946;2023-09-08T14:22:48;7.10;;;4.03;;
31210;SDS011;17836;50.948;3.946;2023-09-08T14:25:13;5.57;;;3.70;;
31210;SDS011;17836;50.948;3.946;2023-09-08T14:27:39;8.53;;;3.80;;
31210;SDS011;17836;50.948;3.946;2023-09-08T14:30:04;4.23;;;3.27;;
31210;SDS011;17836;50.948;3.946;2023-09-08T14:32:30;7.60;;;3.70;;
31210;SDS011;17836;50.948;3.946;2023-09-08T14:34:56;7.93;;;3.50;;
31210;SDS011;17836;50.948;3.946;2023-09-08T14:37:21;5.70;;;2.80;;
31210;SDS011;17836;50.948;3.946;2023-09-08T14:39:47;10.13;;;4.22;;
31210;SDS011;17836;50.948;3.946;2023-09-08T14:42:15;9.30;;;3.88;;
31210;SDS011;17836;50.948;3.946;2023-09-08T14:44:41;5.43;;;3.60;;
31210;SDS011;17836;50.948;3.946;2023-09-08T14:47:06;4.25;;;3.33;;
31210;SDS011;17836;50.948;3.946;2023-09-08T14:49:31;8.37;;;4.07;;